Aviation Digital Data Service (ADDS)

Output produced by METARs form (1507 UTC 27 November 2021)
found at http://www.aviationweather.gov/metar/data/
 
NSFA 271400Z 00000KT 9999 FEW022 25/24 /Q1010
NSFA 271300Z 11006KT 9999 SCT022 25/24 Q1010
NSFA 271200Z 13003KT 9999 SCT022 25/24 Q1011
NSFA 271100Z 11005KT 9999 SCT022 26/24 Q1012
NSFA 271000Z 12004KT 9999 FEW028 25/24 Q1012
NSFA 270900Z 15003KT 9999 FEW022CB FEW028 24/24 Q1012 RMK LIGHTING FROM CB TO SE
NSFA 270800Z 16003KT 9999 FEW028 SCT290 25/24 Q1012
NSFA 270700Z 00000KT 9999 FEW020TCU FEW027 SCT290 26/25 Q1012 RMK TCU TO WSW
NSFA 270600Z 09006KT 9999 FEW024TCU FEW026 SCT290 28/24 Q1011 RMK TCU TO WSW
NSFA 270500Z 04007KT 9999 FEW020TCU FEW024 BKN270 31/26 Q1010 RMK TCU TO W
NSFA 270300Z 03014KT 9999 FEW020TCU SCT024 BKN280 33/27 Q1010 RMK TCU TO SW
NSFA 270200Z 01012KT 9999 FEW020TCU SCT025 BKN250 34/27 Q1010 RMK TCU TO WNW AND SW
NSFA 270100Z 02013KT 9999 FEW020TCU SCT025 BKN280 33/27 Q1011 RMK TCU TO N / SW
NSFA 270000Z 03013KT 9999 FEW020TCU SCT023 BKN180 33/26 Q1011 RMK TCU TO N AND SW
NSFA 262300Z 02013KT 9999 BKN022 31/26 Q1012
NSFA 262200Z 03011KT 9999 SCT022 31/25 Q1012
NSFA 262100Z 03016KT 9999 SCT023 31/25 Q1013
NSFA 262000Z 06010KT 9999 SCT023 30/25 Q1013
NSFA 261900Z 04006KT 9999 FEW023 28/25 Q1013
NSFA 261800Z 13005KT 9999 FEW023 26/24 Q1012
NSFA 261700Z 10004KT 9999 FEW022 24/24 Q1011
NSFA 261600Z 09004KT 9999 FEW022 24/24 Q1011
TAF NSFA 271115Z 2712/2812 04005KT 9999 SCT020 
     PROB40 
     TEMPO 2712/2718 5000 TSRA BKN015 FEW017CB 
     PROB40 
     TEMPO 2800/2809 5000 TSRA BKN015 FEW017CB